createdAt,value
2018-07-24T00:01:38.828Z,20.42
2018-07-24T00:04:07.855Z,20.41
2018-07-24T00:06:37.256Z,20.33
2018-07-24T00:09:09.067Z,20.29
2018-07-24T00:11:38.435Z,20.25
2018-07-24T00:14:07.796Z,20.23
2018-07-24T00:16:36.813Z,20.20
2018-07-24T00:19:06.290Z,20.17
2018-07-24T00:21:35.083Z,20.15
2018-07-24T00:24:04.407Z,20.12
2018-07-24T00:26:33.239Z,20.09
2018-07-24T00:29:01.985Z,20.07
2018-07-24T00:31:30.772Z,20.02
2018-07-24T00:33:59.506Z,19.99
2018-07-24T00:36:28.343Z,19.95
2018-07-24T00:38:57.177Z,19.92
2018-07-24T00:41:25.973Z,19.90
2018-07-24T00:43:54.736Z,19.88
2018-07-24T00:46:23.624Z,19.86
2018-07-24T00:48:53.277Z,19.85
2018-07-24T00:51:22.733Z,19.82
2018-07-24T00:53:51.522Z,19.80
2018-07-24T00:56:20.887Z,19.77
2018-07-24T00:58:49.699Z,19.76
2018-07-24T01:01:19.257Z,19.72
2018-07-24T01:03:49.074Z,19.68
2018-07-24T01:06:17.844Z,19.63
2018-07-24T01:08:46.664Z,19.56
2018-07-24T01:11:15.474Z,19.50
2018-07-24T01:13:44.237Z,19.44
2018-07-24T01:16:13.167Z,19.40
2018-07-24T01:18:41.982Z,19.37
2018-07-24T01:21:10.807Z,19.34
2018-07-24T01:23:39.611Z,19.32
2018-07-24T01:26:08.839Z,19.26
2018-07-24T01:28:38.590Z,19.21
2018-07-24T01:31:08.035Z,19.19
2018-07-24T01:33:37.101Z,19.17
2018-07-24T01:36:06.065Z,19.12
2018-07-24T01:38:34.826Z,19.10
2018-07-24T01:41:03.751Z,19.02
2018-07-24T01:43:32.519Z,19.00
2018-07-24T01:46:01.292Z,18.95
2018-07-24T01:48:30.909Z,18.94
2018-07-24T01:51:00.221Z,18.93
2018-07-24T01:53:28.965Z,18.91
2018-07-24T01:55:58.369Z,18.88
2018-07-24T01:58:27.626Z,18.85
2018-07-24T02:01:01.332Z,18.79
2018-07-24T02:03:31.210Z,18.74
2018-07-24T02:06:00.644Z,18.69
2018-07-24T02:08:29.383Z,18.66
2018-07-24T02:10:58.147Z,18.61
2018-07-24T02:13:26.934Z,18.59
2018-07-24T02:15:55.726Z,18.57
2018-07-24T02:18:24.535Z,18.54
2018-07-24T02:20:53.369Z,18.51
2018-07-24T02:23:22.079Z,18.48
2018-07-24T02:25:50.859Z,18.45
2018-07-24T02:28:19.635Z,18.44
2018-07-24T02:30:48.558Z,18.41
2018-07-24T02:33:17.379Z,18.40
2018-07-24T02:35:46.194Z,18.38
2018-07-24T02:38:15.671Z,18.37
2018-07-24T02:40:44.428Z,18.34
2018-07-24T02:43:13.491Z,18.32
2018-07-24T02:45:42.348Z,18.31
2018-07-24T02:48:11.095Z,18.32
2018-07-24T02:50:39.896Z,18.34
2018-07-24T02:53:08.889Z,18.36
2018-07-24T02:55:38.751Z,18.38
2018-07-24T02:58:08.673Z,18.48
2018-07-24T03:00:38.790Z,18.74
2018-07-24T03:03:08.891Z,19.10
2018-07-24T03:05:38.902Z,19.45
2018-07-24T03:08:07.916Z,19.84
2018-07-24T03:10:36.891Z,20.26
2018-07-24T03:13:05.809Z,20.69
2018-07-24T03:15:34.618Z,21.06
2018-07-24T03:18:03.520Z,21.39
2018-07-24T03:20:32.404Z,21.74
2018-07-24T03:23:01.154Z,22.14
2018-07-24T03:25:30.414Z,22.61
2018-07-24T03:27:59.212Z,23.06
2018-07-24T03:30:28.324Z,23.45
2018-07-24T03:32:57.152Z,23.82
2018-07-24T03:35:25.936Z,24.18
2018-07-24T03:37:54.671Z,24.50
2018-07-24T03:40:23.438Z,24.68
2018-07-24T03:42:52.479Z,24.84
2018-07-24T03:45:21.203Z,25.09
2018-07-24T03:47:49.915Z,25.33
2018-07-24T03:50:18.709Z,25.63
2018-07-24T03:52:47.451Z,25.88
2018-07-24T03:55:17.164Z,26.24
2018-07-24T03:57:46.827Z,26.54
2018-07-24T04:00:16.138Z,26.81
2018-07-24T04:02:45.643Z,27.08
2018-07-24T04:05:14.969Z,27.18
2018-07-24T04:07:43.802Z,27.24
2018-07-24T04:10:12.594Z,27.08
2018-07-24T04:12:41.395Z,26.88
2018-07-24T04:15:10.123Z,26.51
2018-07-24T04:17:39.301Z,25.98
2018-07-24T04:20:08.422Z,25.50
2018-07-24T04:22:37.413Z,25.11
2018-07-24T04:25:06.519Z,24.73
2018-07-24T04:27:35.729Z,24.39
2018-07-24T04:30:05.528Z,24.03
2018-07-24T04:32:34.405Z,23.75
2018-07-24T04:35:03.172Z,23.43
2018-07-24T04:37:32.007Z,23.23
2018-07-24T04:40:00.845Z,23.05
2018-07-24T04:42:29.771Z,22.82
2018-07-24T04:44:58.495Z,22.65
2018-07-24T04:47:27.215Z,22.51
2018-07-24T04:49:56.008Z,22.44
2018-07-24T04:52:24.740Z,22.39
2018-07-24T04:54:53.923Z,22.23
2018-07-24T04:57:23.574Z,22.15
2018-07-24T04:59:53.084Z,22.19
2018-07-24T05:02:22.839Z,22.25
2018-07-24T05:04:52.203Z,22.31
2018-07-24T05:07:20.950Z,22.36
2018-07-24T05:09:49.689Z,22.42
2018-07-24T05:12:18.495Z,22.49
2018-07-24T05:14:47.223Z,22.51
2018-07-24T05:17:16.136Z,22.48
2018-07-24T05:19:44.976Z,22.55
2018-07-24T05:22:13.731Z,22.75
2018-07-24T05:24:42.659Z,22.79
2018-07-24T05:27:11.516Z,22.84
2018-07-24T05:29:40.464Z,22.90
2018-07-24T05:32:09.379Z,22.93
2018-07-24T05:34:38.602Z,22.97
2018-07-24T05:37:08.040Z,23.02
2018-07-24T05:39:37.001Z,23.02
2018-07-24T05:42:06.016Z,22.97
2018-07-24T05:44:34.804Z,22.96
2018-07-24T05:47:03.532Z,23.03
2018-07-24T05:49:32.298Z,23.07
2018-07-24T05:52:01.083Z,23.02
2018-07-24T05:54:30.355Z,22.91
2018-07-24T05:56:59.757Z,22.80
2018-07-24T05:59:29.042Z,22.69
2018-07-24T06:01:59.122Z,22.61
2018-07-24T06:04:28.803Z,22.69
2018-07-24T06:06:57.598Z,22.77
2018-07-24T06:09:26.347Z,22.80
2018-07-24T06:11:55.299Z,22.89
2018-07-24T06:14:24.076Z,22.95
2018-07-24T06:16:53.081Z,23.10
2018-07-24T06:19:21.868Z,23.18
2018-07-24T06:21:51.236Z,23.28
2018-07-24T06:24:19.978Z,23.43
2018-07-24T06:26:48.981Z,23.46
2018-07-24T06:29:17.901Z,23.44
2018-07-24T06:31:47.835Z,23.42
2018-07-24T06:34:16.671Z,23.45
2018-07-24T06:36:45.436Z,23.56
2018-07-24T06:39:14.599Z,23.59
2018-07-24T06:41:43.723Z,23.63
2018-07-24T06:44:13.280Z,23.85
2018-07-24T06:46:42.092Z,23.99
2018-07-24T06:49:10.874Z,24.06
2018-07-24T06:51:40.126Z,24.18
2018-07-24T06:54:10.051Z,24.42
2018-07-24T06:56:40.072Z,24.69
2018-07-24T06:59:08.996Z,24.64
2018-07-24T07:01:39.311Z,24.59
2018-07-24T07:04:09.169Z,24.59
2018-07-24T07:06:38.309Z,24.62
2018-07-24T07:09:08.901Z,24.77
2018-07-24T07:11:38.369Z,24.90
2018-07-24T07:14:07.634Z,24.94
2018-07-24T07:16:38.352Z,25.03
2018-07-24T07:19:08.133Z,25.02
2018-07-24T07:21:37.609Z,25.02
2018-07-24T07:24:06.787Z,24.89
2018-07-24T07:26:35.614Z,24.95
2018-07-24T07:29:04.781Z,24.85
2018-07-24T07:31:33.608Z,24.77
2018-07-24T07:34:02.447Z,24.72
2018-07-24T07:36:31.256Z,24.77
2018-07-24T07:39:00.049Z,24.74
2018-07-24T07:41:28.939Z,24.84
2018-07-24T07:43:57.728Z,25.03
2018-07-24T07:46:26.568Z,25.30
2018-07-24T07:48:55.428Z,25.57
2018-07-24T07:51:24.171Z,25.76
2018-07-24T07:53:53.315Z,25.91
2018-07-24T07:56:23.178Z,25.97
2018-07-24T07:58:52.000Z,26.07
2018-07-24T08:01:21.584Z,26.00
2018-07-24T08:03:51.184Z,25.94
2018-07-24T08:06:20.783Z,25.96
2018-07-24T08:08:49.593Z,25.90
2018-07-24T08:11:18.332Z,25.98
2018-07-24T08:13:47.155Z,26.10
2018-07-24T08:16:15.883Z,26.17
2018-07-24T08:18:44.779Z,26.26
2018-07-24T08:21:13.621Z,26.23
2018-07-24T08:23:42.427Z,26.13
2018-07-24T08:26:11.155Z,26.14
2018-07-24T08:28:40.723Z,26.26
2018-07-24T08:31:09.936Z,26.25
2018-07-24T08:33:39.114Z,26.32
2018-07-24T08:36:08.299Z,26.31
2018-07-24T08:38:37.507Z,26.29
2018-07-24T08:41:06.448Z,26.27
2018-07-24T08:43:35.516Z,26.35
2018-07-24T08:46:04.400Z,26.36
2018-07-24T08:48:33.172Z,26.38
2018-07-24T08:51:01.951Z,26.47
2018-07-24T08:53:30.976Z,26.66
2018-07-24T08:56:00.708Z,26.74
2018-07-24T08:58:29.479Z,26.80
2018-07-24T09:00:59.039Z,26.86
2018-07-24T09:03:28.582Z,26.86
2018-07-24T09:05:58.005Z,27.02
2018-07-24T09:08:26.750Z,27.22
2018-07-24T09:10:55.601Z,27.29
2018-07-24T09:13:24.403Z,27.29
2018-07-24T09:15:53.208Z,27.23
2018-07-24T09:18:22.051Z,27.29
2018-07-24T09:20:50.885Z,27.46
2018-07-24T09:23:19.634Z,27.47
2018-07-24T09:25:48.388Z,27.61
2018-07-24T09:28:17.167Z,27.70
2018-07-24T09:30:46.243Z,27.83
2018-07-24T09:33:15.116Z,28.05
2018-07-24T09:35:43.884Z,28.14
2018-07-24T09:38:13.033Z,28.15
2018-07-24T09:40:41.794Z,28.15
2018-07-24T09:43:10.785Z,28.17
2018-07-24T09:45:39.664Z,28.13
2018-07-24T09:48:09.426Z,28.26
2018-07-24T09:50:38.572Z,28.37
2018-07-24T09:53:07.759Z,28.38
2018-07-24T09:55:37.195Z,28.40
2018-07-24T09:58:07.016Z,28.42
2018-07-24T10:00:41.598Z,28.48
2018-07-24T10:03:11.072Z,28.52
2018-07-24T10:05:40.172Z,28.56
2018-07-24T10:08:09.723Z,28.60
2018-07-24T10:10:39.325Z,28.70
2018-07-24T10:13:08.545Z,28.77
2018-07-24T10:15:37.423Z,28.82
2018-07-24T10:18:06.660Z,28.98
2018-07-24T10:20:35.512Z,29.15
2018-07-24T10:23:04.359Z,29.29
2018-07-24T10:25:33.092Z,29.37
2018-07-24T10:28:01.881Z,29.37
2018-07-24T10:30:30.806Z,29.21
2018-07-24T10:32:59.532Z,29.18
2018-07-24T10:35:28.448Z,29.12
2018-07-24T10:37:57.160Z,29.08
2018-07-24T10:40:25.896Z,29.13
2018-07-24T10:42:54.893Z,29.14
2018-07-24T10:45:23.655Z,29.24
2018-07-24T10:47:52.394Z,29.38
2018-07-24T10:50:21.201Z,29.47
2018-07-24T10:52:49.943Z,29.49
2018-07-24T10:55:20.015Z,29.39
2018-07-24T10:57:49.929Z,29.41
2018-07-24T11:00:19.527Z,29.36
2018-07-24T11:02:49.048Z,29.41
2018-07-24T11:05:18.664Z,29.47
2018-07-24T11:07:47.408Z,29.36
2018-07-24T11:10:16.259Z,29.31
2018-07-24T11:12:45.045Z,29.32
2018-07-24T11:15:13.826Z,29.33
2018-07-24T11:17:42.820Z,29.32
2018-07-24T11:20:11.675Z,29.41
2018-07-24T11:22:40.523Z,29.51
2018-07-24T11:25:10.197Z,29.60
2018-07-24T11:27:39.197Z,29.68
2018-07-24T11:30:08.936Z,29.89
2018-07-24T11:32:38.194Z,30.02
2018-07-24T11:35:07.284Z,30.02
2018-07-24T11:37:36.421Z,30.01
2018-07-24T11:40:05.239Z,29.99
2018-07-24T11:42:34.163Z,30.03
2018-07-24T11:45:02.934Z,30.02
2018-07-24T11:47:31.713Z,30.02
2018-07-24T11:50:00.579Z,30.06
2018-07-24T11:52:29.391Z,30.16
2018-07-24T11:54:58.594Z,30.12
2018-07-24T11:57:28.079Z,30.14
2018-07-24T11:59:57.533Z,30.34
2018-07-24T12:02:27.006Z,30.54
2018-07-24T12:04:56.339Z,30.70
2018-07-24T12:07:25.153Z,30.87
2018-07-24T12:09:53.897Z,31.03
2018-07-24T12:12:22.667Z,31.08
2018-07-24T12:14:51.560Z,31.05
2018-07-24T12:17:20.440Z,31.08
2018-07-24T12:19:49.246Z,31.06
2018-07-24T12:22:18.071Z,30.98
2018-07-24T12:24:46.851Z,30.97
2018-07-24T12:27:15.666Z,31.02
2018-07-24T12:29:44.699Z,31.08
2018-07-24T12:32:13.495Z,31.01
2018-07-24T12:34:42.287Z,30.97
2018-07-24T12:37:11.397Z,30.98
2018-07-24T12:39:40.163Z,31.10
2018-07-24T12:42:09.558Z,31.16
2018-07-24T12:44:38.795Z,31.20
2018-07-24T12:47:07.886Z,31.09
2018-07-24T12:49:37.094Z,31.04
2018-07-24T12:52:06.504Z,31.06
2018-07-24T12:54:35.375Z,31.10
2018-07-24T12:57:04.964Z,31.08
2018-07-24T12:59:34.692Z,31.16
2018-07-24T13:02:04.167Z,31.24
2018-07-24T13:04:33.498Z,31.28
2018-07-24T13:07:02.242Z,31.32
2018-07-24T13:09:31.034Z,31.31
2018-07-24T13:11:59.818Z,31.39
2018-07-24T13:14:28.609Z,31.40
2018-07-24T13:16:57.483Z,31.49
2018-07-24T13:19:26.866Z,31.51
2018-07-24T13:21:55.683Z,31.58
2018-07-24T13:24:24.503Z,31.61
2018-07-24T13:26:53.322Z,31.70
2018-07-24T13:29:22.216Z,31.77
2018-07-24T13:31:51.168Z,31.87
2018-07-24T13:34:19.843Z,31.93
2018-07-24T13:36:48.629Z,32.01
2018-07-24T13:39:17.472Z,32.04
2018-07-24T13:41:46.362Z,32.17
2018-07-24T13:44:15.094Z,32.18
2018-07-24T13:46:43.848Z,32.14
2018-07-24T13:49:12.644Z,32.07
2018-07-24T13:51:41.446Z,32.19
2018-07-24T13:54:10.616Z,32.18
2018-07-24T13:56:41.171Z,32.26
2018-07-24T13:59:10.550Z,32.29
2018-07-24T14:01:40.400Z,32.30
2018-07-24T14:04:11.340Z,32.34
2018-07-24T14:06:40.747Z,32.44
2018-07-24T14:09:11.639Z,32.49
2018-07-24T14:11:41.649Z,32.47
2018-07-24T14:14:11.018Z,32.41
2018-07-24T14:16:40.221Z,32.42
2018-07-24T14:19:09.627Z,32.57
2018-07-24T14:21:38.762Z,32.69
2018-07-24T14:24:07.779Z,32.82
2018-07-24T14:26:36.756Z,32.69
2018-07-24T14:29:05.570Z,32.57
2018-07-24T14:31:34.393Z,32.42
2018-07-24T14:34:03.205Z,32.34
2018-07-24T14:36:32.017Z,32.28
2018-07-24T14:39:00.852Z,32.27
2018-07-24T14:41:29.749Z,32.29
2018-07-24T14:43:58.560Z,32.20
2018-07-24T14:46:28.549Z,32.08
2018-07-24T14:48:57.441Z,31.89
2018-07-24T14:51:26.882Z,31.87
2018-07-24T14:53:55.761Z,31.91
2018-07-24T14:56:25.205Z,31.95
2018-07-24T14:58:54.371Z,31.93
2018-07-24T15:01:24.096Z,31.80
2018-07-24T15:03:53.472Z,31.75
2018-07-24T15:06:22.956Z,31.63
2018-07-24T15:08:51.892Z,31.53
2018-07-24T15:11:20.608Z,31.45
2018-07-24T15:13:49.407Z,31.40
2018-07-24T15:16:18.150Z,31.40
2018-07-24T15:18:47.134Z,31.48
2018-07-24T15:21:15.919Z,31.58
2018-07-24T15:23:44.671Z,31.60
2018-07-24T15:26:13.434Z,31.63
2018-07-24T15:28:42.311Z,31.69
2018-07-24T15:31:12.579Z,31.85
2018-07-24T15:33:41.775Z,31.97
2018-07-24T15:36:11.107Z,32.27
2018-07-24T15:38:40.335Z,32.71
2018-07-24T15:41:09.455Z,33.33
2018-07-24T15:43:39.027Z,33.88
2018-07-24T15:46:07.845Z,34.23
2018-07-24T15:48:36.658Z,34.56
2018-07-24T15:51:05.452Z,35.03
2018-07-24T15:53:34.271Z,35.58
2018-07-24T15:56:03.716Z,35.90
2018-07-24T15:58:32.451Z,36.07
2018-07-24T16:01:01.855Z,36.34
2018-07-24T16:03:31.285Z,36.48
2018-07-24T16:06:00.484Z,36.62
2018-07-24T16:08:29.294Z,37.18
2018-07-24T16:10:58.049Z,37.59
2018-07-24T16:13:26.991Z,37.85
2018-07-24T16:15:55.814Z,37.95
2018-07-24T16:18:24.683Z,38.26
2018-07-24T16:20:53.501Z,38.13
2018-07-24T16:23:22.300Z,38.18
2018-07-24T16:25:51.048Z,38.11
2018-07-24T16:28:19.915Z,38.01
2018-07-24T16:30:48.982Z,37.98
2018-07-24T16:33:17.783Z,37.85
2018-07-24T16:35:46.637Z,37.85
2018-07-24T16:38:15.602Z,37.93
2018-07-24T16:40:44.471Z,38.12
2018-07-24T16:43:13.780Z,38.34
2018-07-24T16:45:43.163Z,38.25
2018-07-24T16:48:12.323Z,38.03
2018-07-24T16:50:41.426Z,38.13
2018-07-24T16:53:10.340Z,38.18
2018-07-24T16:55:40.420Z,38.06
2018-07-24T16:58:11.338Z,38.21
2018-07-24T17:00:41.331Z,38.37
2018-07-24T17:03:11.958Z,38.55
2018-07-24T17:05:41.924Z,38.74
2018-07-24T17:08:11.144Z,38.89
2018-07-24T17:10:40.183Z,38.60
2018-07-24T17:13:08.961Z,38.44
2018-07-24T17:15:37.732Z,38.26
2018-07-24T17:18:06.694Z,38.14
2018-07-24T17:20:35.698Z,37.97
2018-07-24T17:23:04.520Z,37.96
2018-07-24T17:25:33.256Z,37.91
2018-07-24T17:28:02.101Z,37.81
2018-07-24T17:30:31.041Z,37.80
2018-07-24T17:32:59.738Z,37.93
2018-07-24T17:35:28.856Z,37.97
2018-07-24T17:37:57.618Z,37.94
2018-07-24T17:40:26.460Z,37.88
2018-07-24T17:42:55.326Z,37.66
2018-07-24T17:45:24.222Z,37.51
2018-07-24T17:47:52.950Z,37.18
2018-07-24T17:50:21.779Z,37.10
2018-07-24T17:52:50.522Z,37.11
2018-07-24T17:55:20.575Z,37.16
2018-07-24T17:57:49.991Z,37.01
2018-07-24T18:00:19.677Z,37.07
2018-07-24T18:02:49.040Z,37.06
2018-07-24T18:05:18.471Z,37.17
2018-07-24T18:07:47.261Z,37.08
2018-07-24T18:10:16.449Z,36.96
2018-07-24T18:12:45.247Z,36.69
2018-07-24T18:15:15.188Z,36.57
2018-07-24T18:17:44.304Z,36.37
2018-07-24T18:20:13.468Z,36.26
2018-07-24T18:22:42.803Z,36.25
2018-07-24T18:25:12.600Z,36.14
2018-07-24T18:27:42.878Z,36.14
2018-07-24T18:30:11.903Z,35.93
2018-07-24T18:32:40.765Z,35.60
2018-07-24T18:35:09.575Z,35.01
2018-07-24T18:37:38.402Z,34.62
2018-07-24T18:40:07.496Z,34.10
2018-07-24T18:42:36.524Z,33.60
2018-07-24T18:45:05.387Z,33.06
2018-07-24T18:47:34.172Z,32.69
2018-07-24T18:50:03.004Z,32.34
2018-07-24T18:52:32.151Z,32.04
2018-07-24T18:55:00.908Z,31.76
2018-07-24T18:57:30.799Z,31.42
2018-07-24T19:00:00.196Z,31.18
2018-07-24T19:02:29.422Z,30.91
2018-07-24T19:04:59.131Z,30.69
2018-07-24T19:07:27.897Z,30.43
2018-07-24T19:09:56.634Z,30.22
2018-07-24T19:12:25.403Z,30.00
2018-07-24T19:14:54.147Z,29.79
2018-07-24T19:17:23.012Z,29.60
2018-07-24T19:19:51.826Z,29.41
2018-07-24T19:22:20.588Z,29.28
2018-07-24T19:24:49.362Z,29.12
2018-07-24T19:27:18.162Z,28.99
2018-07-24T19:29:47.685Z,28.87
2018-07-24T19:32:16.430Z,28.71
2018-07-24T19:34:45.203Z,28.58
2018-07-24T19:37:14.135Z,28.45
2018-07-24T19:39:43.276Z,28.35
2018-07-24T19:42:12.365Z,28.23
2018-07-24T19:44:42.056Z,28.12
2018-07-24T19:47:10.954Z,28.01
2018-07-24T19:49:39.923Z,27.89
2018-07-24T19:52:08.848Z,27.78
2018-07-24T19:54:37.876Z,27.68
2018-07-24T19:57:07.603Z,27.58
2018-07-24T19:59:37.068Z,27.47
2018-07-24T20:02:06.763Z,27.37
2018-07-24T20:04:36.928Z,27.15
2018-07-24T20:07:06.162Z,27.00
2018-07-24T20:09:34.925Z,26.81
2018-07-24T20:12:03.756Z,26.67
2018-07-24T20:14:32.553Z,26.62
2018-07-24T20:17:01.470Z,26.59
2018-07-24T20:19:30.254Z,26.55
2018-07-24T20:21:59.075Z,26.50
2018-07-24T20:24:27.850Z,26.45
2018-07-24T20:26:56.685Z,26.39
2018-07-24T20:29:26.288Z,26.36
2018-07-24T20:31:55.051Z,26.33
2018-07-24T20:34:23.839Z,26.27
2018-07-24T20:36:52.679Z,26.21
2018-07-24T20:39:21.452Z,26.15
2018-07-24T20:41:50.317Z,26.09
2018-07-24T20:44:19.100Z,26.06
2018-07-24T20:46:47.866Z,26.00
2018-07-24T20:49:16.638Z,25.93
2018-07-24T20:51:45.467Z,25.86
2018-07-24T20:54:14.659Z,25.81
2018-07-24T20:56:44.377Z,25.79
2018-07-24T20:59:14.242Z,25.73
2018-07-24T21:01:43.983Z,25.68
2018-07-24T21:04:13.810Z,25.61
2018-07-24T21:06:43.616Z,25.58
2018-07-24T21:09:12.496Z,25.55
2018-07-24T21:11:41.787Z,25.51
2018-07-24T21:14:11.315Z,25.46
2018-07-24T21:16:40.248Z,25.39
2018-07-24T21:19:09.151Z,25.34
2018-07-24T21:21:38.512Z,25.29
2018-07-24T21:24:07.293Z,25.27
2018-07-24T21:26:36.089Z,25.21
2018-07-24T21:29:05.528Z,25.16
2018-07-24T21:31:34.248Z,25.10
2018-07-24T21:34:03.008Z,25.04
2018-07-24T21:36:31.788Z,25.02
2018-07-24T21:39:00.536Z,25.00
2018-07-24T21:41:29.534Z,24.97
2018-07-24T21:43:58.315Z,24.93
2018-07-24T21:46:27.092Z,24.90
2018-07-24T21:48:55.937Z,24.85
2018-07-24T21:51:24.699Z,24.75
2018-07-24T21:53:53.677Z,24.67
2018-07-24T21:56:23.203Z,24.57
2018-07-24T21:58:51.955Z,24.48
2018-07-24T22:01:25.798Z,24.42
2018-07-24T22:03:55.262Z,24.36
2018-07-24T22:06:24.931Z,24.26
2018-07-24T22:08:53.756Z,24.19
2018-07-24T22:11:22.463Z,24.09
2018-07-24T22:13:51.241Z,24.02
2018-07-24T22:16:19.953Z,23.94
2018-07-24T22:18:48.827Z,23.85
2018-07-24T22:21:17.659Z,23.72
2018-07-24T22:23:46.387Z,23.60
2018-07-24T22:26:15.403Z,23.55
2018-07-24T22:28:45.054Z,23.53
2018-07-24T22:31:14.167Z,23.51
2018-07-24T22:33:43.116Z,23.48
2018-07-24T22:36:12.734Z,23.46
2018-07-24T22:38:41.695Z,23.43
2018-07-24T22:41:11.028Z,23.37
2018-07-24T22:43:39.857Z,23.33
2018-07-24T22:46:08.972Z,23.27
2018-07-24T22:48:37.752Z,23.21
2018-07-24T22:51:06.595Z,23.18
2018-07-24T22:53:35.798Z,23.14
2018-07-24T22:56:05.467Z,23.04
2018-07-24T22:58:34.239Z,23.00
2018-07-24T23:01:03.949Z,22.92
2018-07-24T23:03:33.152Z,22.89
2018-07-24T23:06:02.527Z,22.84
2018-07-24T23:08:31.292Z,22.83
2018-07-24T23:11:00.133Z,22.82
2018-07-24T23:13:28.926Z,22.78
2018-07-24T23:15:57.735Z,22.74
2018-07-24T23:18:27.571Z,22.72
2018-07-24T23:20:56.415Z,22.70
2018-07-24T23:23:25.197Z,22.68
2018-07-24T23:25:54.010Z,22.61
2018-07-24T23:28:23.334Z,22.54
2018-07-24T23:30:52.126Z,22.47
2018-07-24T23:33:20.858Z,22.40
2018-07-24T23:35:49.650Z,22.35
2018-07-24T23:38:18.382Z,22.28
2018-07-24T23:40:47.301Z,22.21
2018-07-24T23:43:16.275Z,22.16
2018-07-24T23:45:45.032Z,22.12
2018-07-24T23:48:14.039Z,22.04
2018-07-24T23:50:43.035Z,21.99
2018-07-24T23:53:12.345Z,21.95
2018-07-24T23:55:42.073Z,21.89
2018-07-24T23:58:10.945Z,21.84
